Latest Weather Observations for Bathurst Airport

IDN60801

Issued at 11:03 am EST Monday 6 July 2015 (issued every 30 minutes, with the page automatically refreshed every 10 minutes)

About weather observations | Map of weather stations | Latest weather observations for NSW | Other Formats
Station Details ID: 063291 Name: BATHURST AIRPORT AWS Lat: -33.41 Lon: 149.65 Height: 744.5 m
Data from the previous 72 hours. | See also: Recent months for locations in New South Wales
Date/Time
EST
Temp
°C
App
Temp
°C
Dew
Point
Rel
Hum
%
Delta-T
°C
Wind Press
QNH
hPa
Press
MSL
hPa
Rain
since 9 am
mm
Dir
 
Spd
km/h
Gust
km/h
Spd
kts
Gust
kts
06/11:00am 5.7 2.6 0.3 68 2.2 N 6 9 3 5 1017.7 1018.6 0.0
06/10:30am 4.4 1.3 0.2 74 1.7 NNW 6 9 3 5 1018.0 1018.9 0.0
06/10:00am 2.2 -0.4 -1.4 77 1.3 NW 2 7 1 4 1018.1 1019.0 0.0
06/09:30am 0.6 -2.8 -1.8 84 0.9 W 6 7 3 4 1018.1 1019.0 0.0
06/09:00am -1.1 -4.4 -1.5 97 0.1 SSW 6 6 3 3 1018.1 1019.0 0.0
06/08:30am -2.4 -6.1 -2.7 98 0.0 SSW 7 7 4 4 1018.0 1018.9 0.0
06/08:00am -2.3 -4.6 -2.4 99 -0.1 CALM 0 0 0 0 1018.0 1018.9 0.0
06/07:30am -4.0 -6.5 -4.1 99 -0.1 CALM 0 0 0 0 1018.0 1018.9 0.0
06/07:00am -4.1 -6.6 -4.2 99 -0.1 CALM 0 0 0 0 1017.9 1018.8 0.0
06/06:30am -4.4 -7.0 -4.5 99 -0.1 CALM 0 0 0 0 1017.8 1018.7 0.0
06/06:00am -4.3 -6.8 -4.4 99 -0.1 CALM 0 2 0 1 1017.7 1018.6 0.0
06/05:30am -4.1 -7.8 -4.2 99 -0.1 SSW 6 7 3 4 1017.7 1018.6 0.0
06/05:00am -4.7 -8.2 -5.8 92 0.2 NE 4 7 2 4 1017.7 1018.6 0.0
06/04:30am -3.4 -5.9 -3.8 97 0.0 CALM 0 0 0 0 1017.7 1018.6 0.0
06/04:00am -3.5 -6.1 -4.8 91 0.3 CALM 0 0 0 0 1018.0 1018.9 0.0
06/03:30am -2.5 -4.9 -3.3 94 0.2 CALM 0 0 0 0 1018.1 1019.0 0.0
06/03:00am -2.6 -6.7 -3.4 94 0.2 SE 9 9 5 5 1018.3 1019.2 0.0
06/02:30am -2.3 -5.1 -3.6 91 0.3 NE 2 6 1 3 1018.4 1019.3 0.0
06/02:00am -2.8 -6.0 -3.9 92 0.2 NE 4 7 2 4 1018.9 1019.8 0.0
06/01:30am -3.0 -5.5 -4.4 90 0.3 CALM 0 0 0 0 1018.9 1019.8 0.0
06/01:00am -2.6 -6.5 -4.2 89 0.4 NE 7 9 4 5 1019.2 1020.1 0.0
06/12:30am -0.9 -3.8 -4.1 79 1.0 NNE 2 7 1 4 1019.5 1020.4 0.0
06/12:00am -1.4 -4.0 -4.6 79 1.0 CALM 0 0 0 0 1019.8 1020.7 0.0
 
Date/Time
EST
Temp
°C
App
Temp
°C
Dew
Point
Rel
Hum
%
Delta-T
°C
Wind Press
QNH
hPa
Press
MSL
hPa
Rain
since 9 am
mm
Dir
 
Spd
km/h
Gust
km/h
Spd
kts
Gust
kts
05/11:30pm -0.6 -3.2 -4.5 75 1.3 CALM 0 0 0 0 1019.7 1020.6 0.0
05/11:00pm 1.1 -2.5 -3.7 70 1.7 NNE 6 7 3 4 1019.8 1020.7 0.0
05/10:30pm 0.2 -3.6 -3.9 74 1.4 NNE 7 9 4 5 1019.8 1020.7 0.0
05/10:00pm -0.5 -4.4 -4.4 75 1.3 NE 7 9 4 5 1019.7 1020.6 0.0
05/09:30pm 1.4 -2.5 -4.2 66 2.0 NE 7 9 4 5 1019.7 1020.6 0.0
05/09:00pm 2.2 -1.6 -3.9 64 2.1 NNE 7 9 4 5 1019.7 1020.6 0.0
05/08:30pm 2.4 -1.5 -4.6 60 2.6 NNE 7 9 4 5 1019.5 1020.4 0.0
05/08:00pm 3.1 -1.1 -4.1 59 2.5 NE 9 11 5 6 1019.6 1020.5 0.0
05/07:30pm 4.2 -0.4 -3.8 56 2.9 NNE 11 13 6 7 1019.8 1020.7 0.0
05/07:00pm 4.9 1.3 -3.6 54 3.1 NNE 6 9 3 5 1019.9 1020.9 0.0
05/06:30pm 4.7 0.6 -2.8 58 2.8 N 9 13 5 7 1020.0 1021.0 0.0
05/06:00pm 4.9 -0.7 -3.1 56 2.9 NNW 17 17 9 9 1019.8 1020.7 0.0
05/05:30pm 6.3 1.4 -3.6 49 3.7 NNW 13 15 7 8 1019.2 1020.1 0.0
05/05:00pm 8.4 3.8 -4.1 41 4.7 N 11 15 6 8 1019.0 1019.9 0.0
05/04:30pm 10.6 5.7 -3.5 37 5.5 N 13 15 7 8 1019.1 1020.0 0.0
05/04:00pm 11.9 6.5 -4.7 31 6.4 N 15 19 8 10 1019.1 1020.0 0.0
05/03:30pm 12.2 7.3 -3.2 34 6.2 N 13 15 7 8 1019.2 1020.1 0.0
05/03:00pm 12.3 7.9 -2.7 35 6.1 N 11 13 6 7 1019.2 1020.1 0.0
05/02:30pm 12.2 8.1 -3.2 34 6.2 N 9 13 5 7 1019.3 1020.2 0.0
05/02:00pm 11.8 7.6 -3.9 33 6.1 N 9 13 5 7 1019.6 1020.5 0.0
05/01:30pm 11.7 7.1 -7.6 25 7.0 N 9 13 5 7 1019.6 1020.5 0.0
05/01:00pm 10.6 5.9 -5.0 33 5.9 NNW 11 13 6 7 1019.8 1020.7 0.0
05/12:30pm 9.3 5.9 -0.3 51 4.0 NW 7 11 4 6 1020.4 1021.3 0.0
05/12:00pm 7.3 4.2 1.2 65 2.6 SW 7 9 4 5 1020.9 1021.8 0.0
05/11:30am 7.1 5.4 1.8 69 2.3 CALM 0 6 0 3 1021.4 1022.4 0.0
05/11:00am 4.4 2.5 0.6 76 1.5 CALM 0 0 0 0 1021.9 1022.8 0.0
05/10:30am 2.3 -1.1 -0.3 83 1.0 SW 7 9 4 5 1022.6 1023.6 0.0
05/10:00am 1.5 -1.3 -0.6 86 0.8 SW 4 7 2 4 1022.6 1023.6 0.0
05/09:30am 1.2 -0.9 -1.0 85 0.8 CALM 0 7 0 4 1022.6 1023.6 0.0
05/09:00am -0.8 -3.0 -1.8 93 0.3 CALM 0 0 0 0 1022.8 1023.8 0.2
05/08:30am -2.1 -5.7 -2.4 98 0.0 SSW 7 9 4 5 1022.7 1023.7 0.2
05/08:00am -2.7 -5.1 -2.8 99 -0.1 CALM 0 0 0 0 1022.5 1023.5 0.0
05/07:30am -3.8 -7.4 -3.9 99 -0.1 SSE 6 6 3 3 1022.5 1023.5 0.0
05/07:00am -5.1 -7.7 -5.2 99 -0.2 CALM 0 0 0 0 1022.1 1023.0 0.0
05/06:30am -4.7 -7.3 -5.0 98 -0.1 CALM 0 0 0 0 1021.8 1022.7 0.0
05/06:00am -3.6 -7.4 -3.7 99 -0.1 SSE 7 11 4 6 1021.8 1022.7 0.0
05/05:30am -3.7 -7.3 -3.8 99 -0.1 SSE 6 9 3 5 1021.6 1022.6 0.0
05/05:00am -4.0 -6.5 -4.1 99 -0.1 CALM 0 0 0 0 1021.6 1022.6 0.0
05/04:30am -3.9 -6.8 -4.0 99 -0.1 SSE 2 6 1 3 1021.5 1022.5 0.0
05/04:00am -3.1 -6.8 -3.2 99 -0.1 S 7 7 4 4 1021.6 1022.6 0.0
05/03:30am -2.8 -5.6 -2.9 99 -0.1 NNE 2 7 1 4 1021.8 1022.7 0.0
05/03:00am -1.7 -6.0 -1.8 99 0.0 ESE 11 13 6 7 1021.9 1022.8 0.0
05/02:30am -2.3 -6.3 -2.4 99 -0.1 ESE 9 11 5 6 1022.4 1023.4 0.0
05/02:00am -1.3 -4.8 -1.4 99 0.0 SSW 7 9 4 5 1022.7 1023.7 0.0
05/01:30am -1.4 -3.6 -1.5 99 0.0 CALM 0 0 0 0 1022.4 1023.4 0.0
05/01:00am -2.1 -5.5 -2.2 99 -0.1 SSW 6 7 3 4 1022.3 1023.3 0.0
05/12:30am -1.7 -3.9 -1.8 99 0.0 CALM 0 0 0 0 1022.1 1023.0 0.0
05/12:00am -1.5 -4.5 -1.6 99 0.0 SSW 4 6 2 3 1022.1 1023.0 0.0
 
Date/Time
EST
Temp
°C
App
Temp
°C
Dew
Point
Rel
Hum
%
Delta-T
°C
Wind Press
QNH
hPa
Press
MSL
hPa
Rain
since 9 am
mm
Dir
 
Spd
km/h
Gust
km/h
Spd
kts
Gust
kts
04/11:30pm -2.1 -4.8 -2.8 95 0.1 SSW 2 9 1 5 1022.2 1023.2 0.0
04/11:00pm 0.1 -3.2 -1.2 91 0.5 SSW 6 6 3 3 1022.2 1023.2 0.0
04/10:30pm -0.1 -3.6 -1.1 93 0.4 SSW 7 9 4 5 1022.2 1023.2 0.0
04/10:00pm 0.5 -2.7 -0.5 93 0.4 ESE 6 7 3 4 1022.4 1023.4 0.0
04/09:30pm 1.7 -1.7 -0.4 86 0.8 SE 7 11 4 6 1022.5 1023.5 0.0
04/09:00pm 1.9 -1.4 -0.2 86 0.8 S 7 9 4 5 1022.7 1023.7 0.0
04/08:30pm 1.8 -1.3 -0.1 87 0.7 SW 6 7 3 4 1022.9 1023.9 0.0
04/08:00pm 2.0 -1.2 -0.4 84 0.9 SW 6 7 3 4 1023.1 1024.1 0.0
04/07:30pm 1.6 -1.7 -1.3 81 1.1 WSW 6 9 3 5 1023.0 1024.0 0.0
04/07:00pm 2.8 -1.1 -1.2 75 1.5 SSW 9 11 5 6 1022.8 1023.8 0.0
04/06:30pm 3.1 -0.8 -1.8 70 1.8 SW 9 11 5 6 1022.5 1023.5 0.0
04/06:00pm 3.7 -0.2 -1.3 70 1.9 SW 9 11 5 6 1022.3 1023.3 0.0
04/05:30pm 3.9 0.0 -1.5 68 2.1 SW 9 11 5 6 1022.0 1022.9 0.0
04/05:00pm 5.3 0.7 -1.2 63 2.5 SW 13 15 7 8 1021.9 1022.8 0.0
04/04:30pm 7.4 2.6 -2.3 50 3.8 SW 13 15 7 8 1022.0 1022.9 0.0
04/04:00pm 8.6 4.2 -2.1 47 4.2 SW 11 15 6 8 1021.9 1022.8 0.0
04/03:30pm 9.0 4.2 -2.9 43 4.6 SW 13 15 7 8 1021.9 1022.8 0.0
04/03:00pm 9.2 3.5 -3.7 40 4.9 WSW 17 24 9 13 1022.0 1022.9 0.0
04/02:30pm 9.3 5.4 -1.4 47 4.3 WSW 9 15 5 8 1021.8 1022.7 0.0
04/02:00pm 8.6 4.4 -1.2 50 3.9 SW 11 17 6 9 1021.8 1022.7 0.0
04/01:30pm 8.6 4.8 -0.7 52 3.8 WNW 9 15 5 8 1022.0 1022.9 0.0
04/01:00pm 7.4 4.5 -1.3 54 3.4 W 4 11 2 6 1022.1 1023.0 0.0
04/12:30pm 6.8 4.0 -0.6 59 3.0 W 4 9 2 5 1022.5 1023.5 0.0
04/12:00pm 7.1 4.1 0.5 63 2.7 W 6 9 3 5 1023.0 1024.0 0.0
04/11:30am 6.2 3.1 0.3 66 2.4 W 6 9 3 5 1023.6 1024.6 0.0
04/11:00am 5.2 2.4 -0.4 67 2.2 NW 4 9 2 5 1023.9 1024.9 0.0
04/10:30am 4.6 1.5 1.5 80 1.3 N 7 9 4 5 1024.0 1025.0 0.0
04/10:00am 2.4 -0.7 0.0 84 0.9 NNE 6 9 3 5 1024.2 1025.2 0.0
04/09:30am 1.5 -0.5 0.2 91 0.5 CALM 0 0 0 0 1024.2 1025.2 0.0
04/09:00am -1.3 -3.5 -1.4 99 0.0 CALM 0 0 0 0 1024.0 1025.0 0.0
04/08:30am -3.2 -5.6 -3.3 99 -0.1 CALM 0 0 0 0 1023.8 1024.8 0.0
04/08:00am -3.5 -6.0 -3.6 99 -0.1 CALM 0 0 0 0 1023.8 1024.8 0.0
04/07:30am -3.2 -5.6 -3.3 99 -0.1 CALM 0 0 0 0 1023.6 1024.6 0.0
04/07:00am -3.0 -5.4 -3.1 99 -0.1 CALM 0 0 0 0 1023.6 1024.6 0.0
04/06:30am -3.1 -6.6 -3.2 99 -0.1 SE 6 7 3 4 1023.0 1024.0 0.0
04/06:00am -3.4 -6.2 -3.5 99 -0.1 SE 2 6 1 3 1022.8 1023.8 0.0
04/05:30am -3.7 -7.5 -3.8 99 -0.1 SSE 7 7 4 4 1022.8 1023.8 0.0
04/05:00am -3.3 -6.9 -3.4 99 -0.1 SSW 6 7 3 4 1023.1 1024.1 0.0
04/04:30am -3.7 -7.3 -3.8 99 -0.1 SW 6 7 3 4 1023.0 1024.0 0.0
04/04:00am -2.9 -5.3 -3.3 97 0.0 CALM 0 0 0 0 1022.9 1023.9 0.0
04/03:30am -2.0 -6.0 -2.1 99 -0.1 E 9 11 5 6 1022.9 1023.9 0.0
04/03:00am -1.6 -3.8 -1.7 99 0.0 CALM 0 0 0 0 1023.8 1024.8 0.0
04/02:30am -1.5 -4.8 -1.6 99 0.0 SSE 6 7 3 4 1024.1 1025.1 0.0
04/02:00am -2.2 -4.9 -2.3 99 -0.1 SSE 2 7 1 4 1024.1 1025.1 0.0
04/01:30am -2.1 -4.4 -2.4 98 0.0 CALM 0 0 0 0 1024.4 1025.5 0.0
04/01:00am -1.8 -4.1 -2.2 97 0.1 CALM 0 0 0 0 1024.2 1025.2 0.0
04/12:30am -1.3 -3.5 -1.4 99 0.0 CALM 0 0 0 0 1024.2 1025.2 0.0
04/12:00am -1.1 -4.0 -1.2 99 0.0 ESE 4 7 2 4 1024.7 1025.7 0.0
 
Date/Time
EST
Temp
°C
App
Temp
°C
Dew
Point
Rel
Hum
%
Delta-T
°C
Wind Press
QNH
hPa
Press
MSL
hPa
Rain
since 9 am
mm
Dir
 
Spd
km/h
Gust
km/h
Spd
kts
Gust
kts
03/11:30pm -2.0 -5.1 -2.4 97 0.0 ESE 4 7 2 4 1024.9 1025.9 0.0
03/11:00pm -1.4 -3.7 -2.5 92 0.3 CALM 0 0 0 0 1025.2 1026.2 0.0
03/10:30pm -0.1 -2.2 -1.1 93 0.4 CALM 0 0 0 0 1025.4 1026.4 0.0
03/10:00pm 0.1 -4.1 -0.9 93 0.4 ENE 11 13 6 7 1025.2 1026.2 0.0
03/09:30pm -0.7 -4.6 -1.7 93 0.3 NNE 9 9 5 5 1025.4 1026.4 0.0
03/09:00pm -0.4 -3.9 -2.9 83 0.9 NE 6 9 3 5 1025.5 1026.5 0.0
03/08:30pm 1.3 -2.2 -1.4 82 1.0 ENE 7 9 4 5 1025.4 1026.4 0.0
03/08:00pm 1.5 -2.4 -1.2 82 1.0 ENE 9 9 5 5 1025.4 1026.4 0.0
03/07:30pm 1.4 -1.2 -1.5 81 1.1 W 2 7 1 4 1025.4 1026.4 0.0
03/07:00pm 3.4 1.2 -1.7 69 1.9 CALM 0 0 0 0 1025.3 1026.3 0.0
03/06:30pm 2.9 -1.2 -3.2 64 2.2 W 9 11 5 6 1025.3 1026.3 0.0
03/06:00pm 5.7 3.2 -4.2 49 3.6 CALM 0 0 0 0 1025.0 1026.0 0.0
03/05:30pm 6.0 2.4 -3.6 50 3.5 NW 6 7 3 4 1024.8 1025.8 0.0
03/05:00pm 7.5 3.8 -2.8 48 3.9 WNW 7 7 4 4 1024.7 1025.7 0.0
03/04:30pm 9.2 5.7 -3.0 42 4.7 WNW 6 9 3 5 1024.4 1025.5 0.0
03/04:00pm 9.9 6.3 -1.8 44 4.7 WNW 7 11 4 6 1024.3 1025.3 0.0
03/03:30pm 9.9 5.9 -2.1 43 4.8 WNW 9 13 5 7 1024.2 1025.2 0.0
03/03:00pm 9.9 5.5 -2.7 41 5.0 NNW 11 17 6 9 1024.1 1025.1 0.0
03/02:30pm 10.2 5.9 0.8 52 4.0 NNW 13 19 7 10 1024.2 1025.2 0.0
03/02:00pm 9.4 5.8 0.3 53 3.8 NNW 9 15 5 8 1024.3 1025.3 0.0
03/01:30pm 8.9 5.2 0.1 54 3.7 NNW 9 11 5 6 1024.7 1025.7 0.0
03/01:00pm 8.0 4.8 0.5 59 3.1 WNW 7 11 4 6 1025.1 1026.1 0.0
03/12:30pm 6.3 3.9 -0.2 63 2.6 SW 2 7 1 4 1025.4 1026.4 0.0
03/12:00pm 5.8 2.6 -0.3 65 2.4 WNW 6 9 3 5 1025.9 1027.0 0.0
03/11:30am 4.9 2.5 -0.3 69 2.1 ENE 2 9 1 5 1026.3 1027.3 0.0

Other Formats:

Comma delimited format used in spreadsheet applications
http://www.bom.gov.au/fwo/IDN60801/IDN60801.94729.axf

JavaScript Object Notation format (JSON) in row-major order
http://www.bom.gov.au/fwo/IDN60801/IDN60801.94729.json